Anholt Island, Denmark

10:54 AM CEST on September 18, 2014 (GMT +0200)
Aarhus | Change Station
CLOSE
Current Station
Airport
Location: Tirstrup,
Elevation: 75 ft
Nearby Weather Stations

Elev 75 ft 56.31 °N, 10.63 °E | Updated 4 minutes ago

Clear
Clear
64 °F
Feels Like 64 °F
N
14
Wind Variable Wind from East

Today
High -- | Low -- °F
--% Chance of Precip.
Yesterday
High -- | Low -- °F
Precip. -- in
6:50 AM 7:24 PM
Waning Crescent, 29% visible
Pressure 30.09 in
Visibility 6.2 miles
Clouds
Dew Point 54 °F
Humidity 68%
Rainfall 0.00 in
Snow Depth Not available.
UV Not available.
Pollen Not available.
Air Quality Not available.
Flu Activity Not available.
METAR EKAH 180850Z AUTO 09012KT 9999NDV NCD 18/12 Q1019

More Conditions Fewer Conditions

Pressure 30.09 in
Visibility 6.2 miles
Clouds
Dew Point 54 °F
Humidity 68%
Rainfall 0.00 in
Snow Depth Not available.
UV Not available.
Pollen Not available.
Air Quality Not available.
Flu Activity Not available.
METAR EKAH 180850Z AUTO 09012KT 9999NDV NCD 18/12 Q1019

More Conditions Fewer Conditions

10-Day Weather Forecast

Almanac

Astronomy

Sep. 18, 2014 Rise Set
Actual Time 6:50 AM CEST 7:24 PM CEST
Civil Twilight 6:12 AM CEST 8:02 PM CEST
Nautical Twilight 5:26 AM CEST 8:48 PM CEST
Astronomical Twilight 4:36 AM CEST 9:37 PM CEST
Moon 12:40 AM CEST 4:47 PM CEST
Length of Visible Light 13h 50m
Length of Day
12h 33m
Tomorrow will be 4m 45s shorter.
Waning Crescent, 29% of the Moon is Illuminated
Today
Waning Crescent
Sep 24
New
Oct 1
First Quarter
Oct 8
Full
Oct 15
Last Quarter

Yesterday's Extremes

Country Highs Country Lows

Community

WunderPhotos

Upload Photos

1,754,310 photos uploaded!

Nearby

Snow Depth

Not available.

Earthquake Activity

City Distance Mag. Time & Date
No recent earthquake activity has been reported nearby.
Minimum magnitude displayed is 2.5.

Coastal Water Temperatures

Place Temperature
No Stations Reporting

Nearby Weather Stations